Richard Lloyd Jones Jr Airport
KRVS : now visible

Airfield :











YOU CAN JOIN US ON...

 
LOGIN :

Register | Disclaimer

   EN    FR    IT 

 









Legend :    VFR   Marginal VFR   IFR   Intensive IFR   Very Intensive IFR
Visi :
Ceiling :
>= 8 km
>= 3000ft
5 to 8 km
1000 to 3000 ft
1500m to 5 km
500 to 1000 ft
800 to 1500m
200 to 500 ft
< 800m
< 200 ft
Symbols :   Thunderstorms  Fog  Heavy snow  Heavy precipitations  Wind > 20 kt






- Airport Elevation : 638 ft


KRVS - Richard Lloyd Jones Jr

CURRENT METAR :
  • 280853Z 00000KT 10SM CLR 03/01 A3028 RMK AO2 SLP258 T00280006 50010

EXPIRED METARs :
  • 280753Z 26003KT 10SM CLR 02/00 A3028 RMK AO2 SLP260 T00220000
  • 280653Z VRB04KT 10SM CLR 06/02 A3026 RMK AO2 SLP253 T00560017

TAF KRVS
Valid from the 28 at 06:00 until the 29 at 06:00 UTC


280527Z 2806/2906 34012KT P6SM SKC
FM281200 24005KT P6SM SCT250
FM281800 29010G20KT P6SM SKC
FM290100 30008KT P6SM SKC



MET'MAP, your aeronautical weather chart ! - Copyright ORBIFLY December 2007 - Disclaimer

ORBIFLY MET'MAP TEAM :

Programming & Development : Alexandra Zaïnal
Concept & original design : Baudouin d'Aumeries
Assistance for programming : Marc-Olivier Méhu
Technical & hardware support : Manuel Goepfert

Contact : metmap@orbifly.com




SOURCES & CREDITS :

   NOAA       Earth
Advisory